Country
Station

 

Weather  for  Rotterdam Airport Zestienhoven  -  Netherlands    Netherlands

  
4 °C (39 °F)
    
 
 

Current METAR for Rotterdam Airport Zestienhoven is :

EHRD 211755Z AUTO 16011KT 130V190 9999 NSC 04/02 Q1013 NOSIG

 

This is a report for Rotterdam Airport Zestienhoven - Netherlands.
 
The report was made 10 minutes ago, at 17:55 UTC .
The wind was blowing at a speed of 5.7 meters per second (12.7 miles per hour) from south/southeast (160°), varying between southeast (130°) and south (190°).
 
The temperature was 4 °C (39 °F), with a dew-point at 2 °C (36 °F).
The temperature felt like -1 °C (31 °F).
 
The atmospheric pressure was 1013 hPa (29.91 inHg).
The relative humidity was 86.8%.
 
The overall visibility was greater than 10 kilometers (6.2 miles).
 

 
 
 
 

Country :   A   B   C   D   E   F   G   H   I   J   K   L   M   N   O   P   Q   R   S   T   U   V   W   Y   Z

 

Site Info  |  Disclaimer  |  Credits  |  Privacy
Contact us  |  Add to favorites
© 2013-2018 METARs - All rights reserved